A19 weather

Lily Dutch Windmill Airstrip
Western Australia, Australia

Public forecast

Using degrees Celsius for public forecast. Weather courtesy of forecast.io.

METAR (pilot weather report)

Closest report is Albany Airport, 47.6 nm (88.1 km) SSW. Retrieved 2019/03/25 14:00 UTC (7 minutes ago):

YABA 251400Z AUTO 07007KT 9999 // NCD 12/10 Q1024

TAF (pilot weather forecast)

Closest forecast is Perth Jandakot Airport, 173.5 nm (321.2 km) NW. Retrieved 2019/03/25 12:00 UTC (2 hours ago):

TAF YPJT 251002Z 2512/2606 10014KT CAVOK FM251600 08014G24KT CAVOK FM260100 05012KT CAVOK